• Join FlightAware (Why Join?)
  • Login
  • US Flag 
09:10AM EST


 

Airport Tracker/Info


-or-


 

Live Flight TrackerFlight Track Log ✈ TAM3600 ✈ 29-Jul-2013 ✈ SBSP / CGH - SBSV / SSA

Flight Track Log - Related Links

Times and Time Zones

All times are in EDT time to prevent confusion due to time zone crossing. See the TAM3600 flight status page for this flight to view local times or setup timezone preferences in your user account.

Time Position Orientation Groundspeed Altitude Reporting Facility
EDT Latitude Longitude Course Direction KTS MPH feet Rate Location/Type
08:18PM -23.6500 -46.6330 149° Southeast 177 204 3,400  Level FlightAware
08:18PM -23.6500 -46.6280 90° East 187 215 3,500 1,500 Climbing FlightAware
08:19PM -23.6410 -46.6090 63° Northeast 203 234 4,100 1,980 Climbing FlightAware
08:19PM -23.6350 -46.6050 31° Northeast 200 230 4,500 2,340 Climbing FlightAware
08:19PM -23.6190 -46.5940 32° Northeast 201 231 5,200 1,920 Climbing FlightAware
08:19PM -23.6130 -46.5890 37° Northeast 203 234 5,400 1,380 Climbing FlightAware
08:19PM -23.6090 -46.5800 64° Northeast 204 235 5,600 720 Climbing FlightAware
08:20PM -23.6040 -46.5640 71° East 201 231 5,700 600 Climbing FlightAware
08:20PM -23.6000 -46.5410 79° East 214 246 6,000 780 Climbing FlightAware
08:20PM -23.5970 -46.5230 80° East 239 275 6,200 1,140 Climbing FlightAware
08:21PM -23.5920 -46.4980 78° East 263 303 6,700 2,100 Climbing FlightAware
08:21PM -23.5860 -46.4690 77° East 271 312 7,700 2,580 Climbing FlightAware
08:21PM -23.5760 -46.4400 69° East 281 323 8,600 2,220 Climbing FlightAware
08:21PM -23.5670 -46.4310 43° Northeast 292 336 8,900 2,280 Climbing FlightAware
08:22PM -23.5460 -46.4190 28° Northeast 297 342 9,600 1,920 Climbing FlightAware
08:22PM -23.5010 -46.3950 26° Northeast 323 372 10,600 1,320 Climbing FlightAware
08:23PM -23.4540 -46.3700 26° Northeast 359 413 11,100 1,620 Climbing FlightAware
08:23PM -23.4030 -46.3420 27° Northeast 366 421 12,400 2,040 Climbing FlightAware
08:24PM -23.3450 -46.3100 27° Northeast 377 434 13,600 1,920 Climbing FlightAware
08:25PM -23.2980 -46.2840 27° Northeast 384 442 14,600 1,920 Climbing FlightAware
08:25PM -23.2400 -46.2530 26° Northeast 379 436 15,900 1,740 Climbing FlightAware
08:26PM -23.1810 -46.2200 27° Northeast 399 459 16,800 1,620 Climbing FlightAware
08:26PM -23.1230 -46.1890 26° Northeast 398 458 17,800 1,740 Climbing FlightAware
08:27PM -23.0530 -46.1570 23° Northeast 412 474 19,000 1,680 Climbing FlightAware
08:28PM -22.9860 -46.1310 20° North 410 472 20,000 1,560 Climbing FlightAware
08:28PM -22.9270 -46.1090 19° North 415 478 20,900 1,500 Climbing FlightAware
08:29PM -22.8580 -46.0820 20° North 428 493 21,800 1,560 Climbing FlightAware
08:29PM -22.7920 -46.0570 19° North 427 491 22,700 1,500 Climbing FlightAware
08:30PM -22.6960 -46.0200 20° North 441 507 24,000 1,380 Climbing FlightAware
08:31PM -22.6270 -45.9940 19° North 447 514 24,700 1,320 Climbing FlightAware
08:31PM -22.5590 -45.9680 19° North 442 509 25,600 1,260 Climbing FlightAware
08:32PM -22.4890 -45.9410 20° North 459 528 26,200 840 Climbing FlightAware
08:33PM -22.4170 -45.9130 20° North 463 533 26,600 1,020 Climbing FlightAware
08:33PM -22.3470 -45.8870 19° North 464 534 27,400 1,260 Climbing FlightAware
08:34PM -22.2720 -45.8580 20° North 477 549 28,100 1,020 Climbing FlightAware
08:34PM -22.2000 -45.8310 19° North 481 554 28,600 1,080 Climbing FlightAware
08:35PM -22.1360 -45.8070 19° North 475 547 29,300 1,320 Climbing FlightAware
08:35PM -22.0540 -45.7760 19° North 476 548 30,200 1,080 Climbing FlightAware
08:36PM -21.9780 -45.7470 19° North 475 547 30,700 1,020 Climbing FlightAware
08:37PM -21.9060 -45.7200 19° North 481 554 31,400 1,080 Climbing FlightAware
08:37PM -21.8330 -45.6920 20° North 474 545 32,000 840 Climbing FlightAware
08:38PM -21.7600 -45.6650 19° North 483 556 32,500 840 Climbing FlightAware
08:38PM -21.6910 -45.6380 20° North 482 555 33,100 900 Climbing FlightAware
08:39PM -21.6110 -45.6080 19° North 485 558 33,600 780 Climbing FlightAware
08:40PM -21.5630 -45.5900 19° North 482 555 34,000 1,500 Climbing FlightAware
08:40PM -21.4990 -45.5520 29° Northeast 471 542 34,700 1,260 Climbing FlightAware
08:40PM -21.4440 -45.4980 42° Northeast 473 544 35,100 780 Climbing FlightAware
08:41PM -21.4020 -45.4550 44° Northeast 473 544 35,500 780 Climbing FlightAware
08:42PM -21.3370 -45.3900 43° Northeast 473 544 36,000 720 Climbing FlightAware
08:42PM -21.2800 -45.3330 43° Northeast 471 542 36,400 600 Climbing FlightAware
08:43PM -21.2250 -45.2780 43° Northeast 474 545 36,700 480 Climbing FlightAware
08:43PM -21.1660 -45.2190 43° Northeast 473 544 37,000 240 Climbing FlightAware
08:44PM -21.1250 -45.1780 43° Northeast 473 544 37,000  Level FlightAware
08:45PM -21.0620 -45.1140 43° Northeast 474 545 37,000  Level FlightAware
08:45PM -20.9950 -45.0480 43° Northeast 476 548 37,000  Level FlightAware
08:46PM -20.9320 -44.9850 43° Northeast 478 550 37,000  Level FlightAware
08:46PM -20.8750 -44.9280 43° Northeast 478 550 37,000 60 Level FlightAware
08:47PM -20.8180 -44.8720 43° Northeast 476 548 37,100  Climbing FlightAware
08:48PM -20.7580 -44.8120 43° Northeast 474 545 37,000 -120 Descending FlightAware
08:48PM -20.7050 -44.7590 43° Northeast 472 543 37,000  Level FlightAware
08:49PM -20.6550 -44.7090 43° Northeast 469 540 37,000  Level FlightAware
08:49PM -20.5960 -44.6510 43° Northeast 467 537 37,000  Level FlightAware
08:50PM -20.5390 -44.5940 43° Northeast 465 535 37,000  Level FlightAware
08:50PM -20.4830 -44.5390 43° Northeast 464 534 37,000  Level FlightAware
08:51PM -20.4280 -44.4850 43° Northeast 463 533 37,000  Level FlightAware
08:52PM -20.3720 -44.4300 43° Northeast 464 534 37,000  Level FlightAware
08:52PM -20.3140 -44.3730 43° Northeast 465 535 37,000  Level FlightAware
08:53PM -20.2600 -44.3200 43° Northeast 465 535 37,000  Level FlightAware
08:53PM -20.2030 -44.2630 43° Northeast 467 537 37,000  Level FlightAware
08:54PM -20.1490 -44.2100 43° Northeast 468 539 37,000  Level FlightAware
08:55PM -20.0910 -44.1540 42° Northeast 470 541 37,000  Level FlightAware
08:55PM -20.0350 -44.0980 43° Northeast 469 540 37,000 60 Level FlightAware
08:56PM -19.9790 -44.0440 42° Northeast 466 536 37,100  Climbing FlightAware
08:56PM -19.9260 -43.9920 43° Northeast 464 534 37,000 -120 Descending FlightAware
08:57PM -19.8650 -43.9330 42° Northeast 463 533 37,000  Level FlightAware
08:57PM -19.8130 -43.8820 43° Northeast 464 534 37,000  Level FlightAware
08:58PM -19.7620 -43.8320 43° Northeast 465 535 37,000  Level FlightAware
08:59PM -19.7040 -43.7750 43° Northeast 467 537 37,000  Level FlightAware
08:59PM -19.6470 -43.7200 42° Northeast 468 539 37,000  Level FlightAware
09:00PM -19.5910 -43.6650 43° Northeast 469 540 37,000  Level FlightAware
09:00PM -19.5400 -43.6150 43° Northeast 470 541 37,000  Level FlightAware
09:01PM -19.4740 -43.5520 42° Northeast 472 543 37,000  Level FlightAware
09:02PM -19.4110 -43.4900 43° Northeast 474 545 37,000  Level FlightAware
09:02PM -19.3550 -43.4370 42° Northeast 474 545 37,000  Level FlightAware
09:03PM -19.2900 -43.3740 42° Northeast 474 545 37,000  Level FlightAware
09:04PM -19.2180 -43.3040 43° Northeast 473 544 37,000  Level FlightAware
09:04PM -19.1630 -43.2510 42° Northeast 473 544 37,000  Level FlightAware
09:05PM -19.1080 -43.1980 42° Northeast 471 542 37,000  Level FlightAware
09:05PM -19.0450 -43.1380 42° Northeast 470 541 37,000  Level FlightAware
09:06PM -18.9870 -43.0810 43° Northeast 470 541 37,000  Level FlightAware
09:07PM -18.9390 -43.0350 42° Northeast 470 541 37,000  Level FlightAware
09:07PM -18.8740 -42.9730 42° Northeast 470 541 37,000  Level FlightAware
09:08PM -18.8190 -42.9200 42° Northeast 471 542 37,000  Level FlightAware
09:08PM -18.7700 -42.8730 42° Northeast 471 542 37,000  Level FlightAware
09:09PM -18.7100 -42.8160 42° Northeast 472 543 37,000  Level FlightAware
09:09PM -18.6580 -42.7660 42° Northeast 471 542 37,000  Level FlightAware
09:10PM -18.6010 -42.7120 42° Northeast 470 541 37,000  Level FlightAware
09:11PM -18.5530 -42.6660 42° Northeast 469 540 37,000  Level FlightAware
09:11PM -18.4750 -42.5920 42° Northeast 467 537 37,000  Level FlightAware
09:12PM -18.4200 -42.5380 43° Northeast 465 535 37,000  Level FlightAware
09:13PM -18.3620 -42.4840 41° Northeast 464 534 37,000  Level FlightAware
09:13PM -18.3130 -42.4370 42° Northeast 464 534 37,000  Level FlightAware
09:14PM -18.2560 -42.3830 42° Northeast 463 533 37,000  Level FlightAware
09:14PM -18.1980 -42.3280 42° Northeast 464 534 37,000  Level FlightAware
09:15PM -18.1400 -42.2730 42° Northeast 465 535 37,000  Level FlightAware
09:16PM -18.0630 -42.2000 42° Northeast 467 537 37,000  Level FlightAware
09:16PM -18.0190 -42.1580 42° Northeast 469 540 37,000  Level FlightAware
09:17PM -17.9580 -42.1000 42° Northeast 470 541 37,000  Level FlightAware
09:17PM -17.9010 -42.0470 42° Northeast 468 539 37,000  Level FlightAware
09:18PM -17.8440 -41.9920 43° Northeast 466 536 37,000  Level FlightAware
09:19PM -17.7760 -41.9290 41° Northeast 465 535 37,000  Level FlightAware
09:19PM -17.7230 -41.8790 42° Northeast 464 534 37,000  Level FlightAware
09:20PM -17.6620 -41.8210 42° Northeast 464 534 37,000  Level FlightAware
09:20PM -17.6680 -41.8270 224° Southwest 464 534 37,000  Level FlightAware
09:21PM -17.5480 -41.7140 42° Northeast 463 533 37,000  Level FlightAware
09:22PM -17.5060 -41.6740 42° Northeast 463 533 37,000  Level FlightAware
09:22PM -17.4570 -41.6280 42° Northeast 463 533 37,000  Level FlightAware
09:23PM -17.4080 -41.5820 42° Northeast 463 533 37,000  Level FlightAware
09:23PM -17.3600 -41.5360 42° Northeast 463 533 37,000  Level FlightAware
09:24PM -17.3110 -41.4900 42° Northeast 463 533 37,000  Level FlightAware
09:25PM -17.2620 -41.4440 42° Northeast 463 533 37,000  Level FlightAware
09:25PM -17.2120 -41.3970 42° Northeast 463 533 37,000  Level FlightAware
09:26PM -17.1630 -41.3510 42° Northeast 463 533 37,000  Level FlightAware
09:26PM -17.1150 -41.3050 42° Northeast 463 533 37,000  Level FlightAware
09:27PM -17.0650 -41.2580 42° Northeast 463 533 37,000  Level FlightAware
09:28PM -17.0160 -41.2120 42° Northeast 463 533 37,000  Level FlightAware
09:28PM -16.9660 -41.1650 42° Northeast 463 533 37,000  Level FlightAware
09:29PM -16.9170 -41.1190 42° Northeast 463 533 37,000  Level FlightAware
09:29PM -16.8690 -41.0730 43° Northeast 463 533 37,000  Level FlightAware
09:30PM -16.8200 -41.0280 41° Northeast 463 533 37,000 -840 Level FlightAware
09:33PM -16.6171 -40.8849 34° Northeast  Level Estimated
09:34PM -16.5348 -40.8270 34° Northeast  Level Estimated
09:35PM -16.4525 -40.7691 34° Northeast  Level Estimated
09:36PM -16.3702 -40.7113 34° Northeast  Level Estimated
09:37PM -16.2878 -40.6535 34° Northeast  Level Estimated
09:38PM -16.2055 -40.5958 34° Northeast  Level Estimated
09:39PM -16.1231 -40.5381 34° Northeast  Level Estimated
09:40PM -16.0407 -40.4805 34° Northeast  Level Estimated
09:41PM -15.9583 -40.4229 34° Northeast  Level Estimated
09:42PM -15.8759 -40.3654 34° Northeast  Level Estimated
09:43PM -15.7935 -40.3079 34° Northeast  Level Estimated
09:44PM -15.7111 -40.2505 34° Northeast  Level Estimated
09:45PM -15.6286 -40.1931 34° Northeast  Level Estimated
09:46PM -15.5461 -40.1357 34° Northeast  Level Estimated
09:47PM -15.4636 -40.0784 34° Northeast  Level Estimated
09:48PM -15.3811 -40.0212 34° Northeast  Level Estimated
09:49PM -15.2986 -39.9640 34° Northeast  Level Estimated
09:50PM -15.2161 -39.9068 34° Northeast  Level Estimated
09:51PM -15.1335 -39.8497 34° Northeast  Level Estimated
09:52PM -15.0510 -39.7926 34° Northeast  Level Estimated
09:53PM -14.9684 -39.7356 34° Northeast  Level Estimated
09:54PM -14.8858 -39.6786 34° Northeast  Level Estimated
09:55PM -14.8032 -39.6217 34° Northeast  Level Estimated
09:56PM -14.7206 -39.5648 34° Northeast  Level Estimated
09:57PM -14.6380 -39.5079 34° Northeast  Level Estimated
09:58PM -14.5553 -39.4511 34° Northeast  Level Estimated
09:59PM -14.4727 -39.3943 34° Northeast  Level Estimated
10:00PM -14.3900 -39.3376 34° Northeast  Level Estimated
10:01PM -14.3073 -39.2809 34° Northeast  Level Estimated
10:02PM -14.2246 -39.2243 34° Northeast  Level Estimated
10:03PM -14.1419 -39.1677 34° Northeast  Level Estimated
10:04PM -14.0592 -39.1111 34° Northeast  Level Estimated
10:04PM -13.2750 -38.7460 34° Northeast 279 321 7,700  Level FlightAware
10:05PM -13.9764 -39.0546 34° Northeast  Level Estimated
10:05PM -13.2460 -38.7250 35° Northeast 278 320 7,600  Level FlightAware
10:07PM -13.1290 -38.6410 35° Northeast 256 295 4,600 -1,560 Descending FlightAware
10:07PM -13.1060 -38.6250 34° Northeast 254 292 4,100 -1,320 Descending FlightAware
10:08PM -13.0790 -38.6040 37° Northeast 247 284 3,500 -1,080 Descending FlightAware
10:08PM -13.0690 -38.5960 38° Northeast 244 281 3,400 -960 Descending FlightAware
10:08PM -13.0520 -38.5820 39° Northeast 237 273 3,000 -1,140 Descending FlightAware
10:09PM -13.0310 -38.5640 40° Northeast 232 267 2,600 -720 Descending FlightAware
10:09PM -13.0150 -38.5510 38° Northeast 225 259 2,500 -480 Descending FlightAware
10:09PM -13.0000 -38.5370 42° Northeast 210 242 2,300 -300 Descending FlightAware
10:10PM -12.9840 -38.5240 38° Northeast 196 226 2,300 -180 Level FlightAware
10:10PM -12.9740 -38.5160 38° Northeast 193 222 2,200 -360 Descending FlightAware
10:10PM -12.9610 -38.5050 40° Northeast 191 220 2,100 -240 Descending FlightAware
10:10PM -12.9520 -38.4980 37° Northeast 184 212 2,100  Level FlightAware
10:11PM -12.9440 -38.4880 51° Northeast 175 201 2,100  Level FlightAware
10:11PM -12.9420 -38.4840 63° Northeast 173 199 2,100 -420 Level FlightAware
10:11PM -12.9390 -38.4750 71° East 169 194 2,000 -240 Descending FlightAware
10:11PM -12.9370 -38.4630 80° East 159 183 2,000 -300 Level FlightAware
10:12PM -12.9330 -38.4450 77° East 152 175 1,800 -540 Descending FlightAware
10:12PM -12.9300 -38.4320 77° East 136 157 1,600 -780 Descending FlightAware
10:12PM -12.9280 -38.4190 81° East 132 152 1,300 -720 Descending FlightAware
10:13PM -12.9250 -38.4050 78° East 133 153 1,100 -540 Descending FlightAware
10:13PM -12.9230 -38.3920 81° East 132 152 900 -780 Descending FlightAware
10:13PM -12.9200 -38.3790 77° East 131 151 600 -780 Descending FlightAware
10:14PM -12.9180 -38.3670 80° East 131 151 400 -600 Descending FlightAware
10:14PM -12.9150 -38.3520 78° East 132 152 200 -540 Descending FlightAware
10:14PM -12.9120 -38.3400 76° East 132 152 -600 Descending FlightAware
10:15PM -12.9110 -38.3330 82° East 133 153  Level FlightAware